Time,TemperatureF,DewpointF,PressureIn,WindDirection,WindDirectionDegrees,WindSpeedMPH,WindSpeedGustMPH,Humidity,HourlyPrecipIn,Conditions,Clouds,dailyrainin,SoftwareType,DateUTC
2013-08-22 00:00:00,80.9,70.6,29.99,South,180,0.0,0.0,71,0.00,,---,0.00,VWS V14.00,2013-08-22 05:00:00,
2013-08-22 00:15:00,80.5,70.7,30.00,South,180,0.0,0.0,72,0.00,,---,0.00,VWS V14.00,2013-08-22 05:15:00,
2013-08-22 00:30:00,80.2,70.8,29.99,South,180,0.0,0.0,73,0.00,,---,0.00,VWS V14.00,2013-08-22 05:30:00,
2013-08-22 00:45:00,79.9,70.5,29.99,South,180,0.0,0.0,73,0.00,,---,0.00,VWS V14.00,2013-08-22 05:45:00,
2013-08-22 01:00:00,79.8,70.8,29.98,South,180,0.0,0.0,74,0.00,,---,0.00,VWS V14.00,2013-08-22 06:00:00,
2013-08-22 01:15:00,79.5,70.9,29.99,South,180,0.0,0.0,75,0.00,,---,0.00,VWS V14.00,2013-08-22 06:15:00,
2013-08-22 01:30:00,78.9,70.7,30.00,South,180,0.0,0.0,76,0.00,,---,0.00,VWS V14.00,2013-08-22 06:30:00,
2013-08-22 01:45:00,78.6,70.8,29.99,South,180,0.0,0.0,77,0.00,,---,0.00,VWS V14.00,2013-08-22 06:45:00,
2013-08-22 02:00:00,78.2,71.2,29.99,South,180,0.0,0.0,79,0.00,,---,0.00,VWS V14.00,2013-08-22 07:00:00,
2013-08-22 02:15:00,77.9,71.2,29.99,South,180,0.0,0.0,80,0.00,,---,0.00,VWS V14.00,2013-08-22 07:15:00,
2013-08-22 02:30:00,77.7,71.0,29.99,South,180,0.0,0.0,80,0.00,,---,0.00,VWS V14.00,2013-08-22 07:30:00,
2013-08-22 02:45:00,77.6,71.3,29.99,South,180,0.0,0.0,81,0.00,,---,0.00,VWS V14.00,2013-08-22 07:45:00,
2013-08-22 03:00:00,77.4,71.1,29.99,South,180,0.0,0.0,81,0.00,,---,0.00,VWS V14.00,2013-08-22 08:00:00,
2013-08-22 03:15:00,77.2,71.3,29.99,South,180,0.0,0.0,82,0.00,,---,0.00,VWS V14.00,2013-08-22 08:15:00,
2013-08-22 03:30:00,77.0,71.4,29.99,South,180,0.0,0.0,83,0.00,,---,0.00,VWS V14.00,2013-08-22 08:30:00,
2013-08-22 03:45:00,76.9,71.3,29.99,South,180,0.0,0.0,83,0.00,,---,0.00,VWS V14.00,2013-08-22 08:45:00,
2013-08-22 04:00:00,76.8,71.6,29.99,South,180,0.0,0.0,84,0.00,,---,0.00,VWS V14.00,2013-08-22 09:00:00,
2013-08-22 04:15:00,76.7,71.5,30.00,South,180,0.0,0.0,84,0.00,,---,0.00,VWS V14.00,2013-08-22 09:15:00,
2013-08-22 04:30:00,76.6,71.4,29.99,South,180,0.0,0.0,84,0.00,,---,0.00,VWS V14.00,2013-08-22 09:30:00,
2013-08-22 04:45:00,76.6,71.8,30.00,South,180,0.0,0.0,85,0.00,,---,0.00,VWS V14.00,2013-08-22 09:45:00,
2013-08-22 05:00:00,76.5,72.0,30.00,South,180,0.0,0.0,86,0.00,,---,0.00,VWS V14.00,2013-08-22 10:00:00,
2013-08-22 05:15:00,76.4,72.2,30.00,South,180,0.0,0.0,87,0.00,,---,0.00,VWS V14.00,2013-08-22 10:15:00,
2013-08-22 05:30:00,76.4,72.6,30.01,South,180,0.0,0.0,88,0.00,,---,0.00,VWS V14.00,2013-08-22 10:30:00,
2013-08-22 05:45:00,76.3,72.5,30.01,South,180,0.0,0.0,88,0.00,,---,0.00,VWS V14.00,2013-08-22 10:45:00,
2013-08-22 06:00:00,76.2,72.4,30.00,South,180,0.0,0.0,88,0.00,,---,0.00,VWS V14.00,2013-08-22 11:00:00,
2013-08-22 06:15:00,76.0,72.2,30.01,South,180,0.0,0.0,88,0.00,,---,0.00,VWS V14.00,2013-08-22 11:15:00,
2013-08-22 06:30:00,75.8,72.3,30.02,South,180,0.0,0.0,89,0.00,,---,0.00,VWS V14.00,2013-08-22 11:30:00,
2013-08-22 06:45:00,75.7,72.2,30.01,South,180,0.0,0.0,89,0.00,,---,0.00,VWS V14.00,2013-08-22 11:45:00,
2013-08-22 07:00:00,75.6,72.5,30.01,South,180,0.0,0.0,90,0.00,,---,0.00,VWS V14.00,2013-08-22 12:00:00,
2013-08-22 07:15:00,75.6,72.5,30.01,South,180,0.0,0.0,90,0.00,,---,0.00,VWS V14.00,2013-08-22 12:15:00,
2013-08-22 07:30:00,75.6,72.5,30.02,South,180,0.0,0.0,90,0.00,,---,0.00,VWS V14.00,2013-08-22 12:30:00,
2013-08-22 07:45:00,75.6,72.5,30.03,South,180,0.0,0.0,90,0.00,,---,0.00,VWS V14.00,2013-08-22 12:45:00,
2013-08-22 08:00:00,75.8,72.7,30.03,South,180,0.0,0.0,90,0.00,,---,0.00,VWS V14.00,2013-08-22 13:00:00,
2013-08-22 08:15:00,76.1,73.0,30.03,South,180,0.0,0.0,90,0.00,,---,0.00,VWS V14.00,2013-08-22 13:15:00,
2013-08-22 08:30:00,76.6,73.4,30.04,South,180,0.0,0.0,90,0.00,,---,0.00,VWS V14.00,2013-08-22 13:30:00,
2013-08-22 08:45:00,77.3,73.8,30.04,SE,135,0.0,2.0,89,0.00,,---,0.00,VWS V14.00,2013-08-22 13:45:00,
2013-08-22 09:00:00,78.2,74.0,30.04,SE,135,0.0,0.0,87,0.00,,---,0.00,VWS V14.00,2013-08-22 14:00:00,
2013-08-22 09:15:00,80.8,75.5,30.04,SSE,158,0.0,5.0,84,0.00,,---,0.00,VWS V14.00,2013-08-22 14:15:00,
2013-08-22 09:30:00,82.5,76.1,30.04,South,180,0.0,1.0,81,0.00,,---,0.00,VWS V14.00,2013-08-22 14:30:00,
2013-08-22 09:45:00,83.6,76.4,30.03,SE,135,0.0,5.0,79,0.00,,---,0.00,VWS V14.00,2013-08-22 14:45:00,
2013-08-22 10:00:00,85.1,75.9,30.03,SE,135,0.0,6.0,74,0.00,,---,0.00,VWS V14.00,2013-08-22 15:00:00,
2013-08-22 10:15:00,85.4,73.6,30.03,SSE,158,0.0,4.0,68,0.00,,---,0.00,VWS V14.00,2013-08-22 15:15:00,
2013-08-22 10:30:00,86.5,74.7,30.03,SSE,158,0.0,0.0,68,0.00,,---,0.00,VWS V14.00,2013-08-22 15:30:00,
2013-08-22 10:45:00,86.6,73.4,30.02,SSE,158,0.0,4.0,65,0.00,,---,0.00,VWS V14.00,2013-08-22 15:45:00,
2013-08-22 11:00:00,88.6,73.9,30.02,ESE,112,0.0,1.0,62,0.00,,---,0.00,VWS V14.00,2013-08-22 16:00:00,
2013-08-22 11:15:00,88.6,72.4,30.02,SE,135,0.0,4.0,59,0.00,,---,0.00,VWS V14.00,2013-08-22 16:15:00,
2013-08-22 11:30:00,88.6,73.4,30.02,SE,135,0.0,0.0,61,0.00,,---,0.00,VWS V14.00,2013-08-22 16:30:00,
2013-08-22 11:45:00,90.1,73.8,30.02,SE,135,0.0,0.0,59,0.00,,---,0.00,VWS V14.00,2013-08-22 16:45:00,
2013-08-22 12:00:00,89.9,73.7,30.02,SE,135,0.0,0.0,59,0.00,,---,0.00,VWS V14.00,2013-08-22 17:00:00,
2013-08-22 12:15:00,90.0,72.7,30.01,SE,135,0.0,0.0,57,0.00,,---,0.00,VWS V14.00,2013-08-22 17:15:00,
2013-08-22 12:30:00,91.5,73.1,30.00,ESE,112,0.0,6.0,55,0.00,,---,0.00,VWS V14.00,2013-08-22 17:30:00,
2013-08-22 12:45:00,91.9,72.3,30.00,ESE,112,3.0,11.0,53,0.00,,---,0.00,VWS V14.00,2013-08-22 17:45:00,
2013-08-22 13:00:00,91.0,72.1,29.99,East,90,2.0,7.0,54,0.00,,---,0.00,VWS V14.00,2013-08-22 18:00:00,
2013-08-22 13:15:00,93.0,72.8,29.98,ENE,68,3.0,11.0,52,0.00,,---,0.00,VWS V14.00,2013-08-22 18:15:00,
2013-08-22 13:30:00,93.7,72.3,29.98,East,90,6.0,16.0,50,0.00,,---,0.00,VWS V14.00,2013-08-22 18:30:00,
2013-08-22 13:45:00,94.7,72.6,29.97,ESE,112,4.0,13.0,49,0.00,,---,0.00,VWS V14.00,2013-08-22 18:45:00,
2013-08-22 14:00:00,94.6,71.9,29.96,SE,135,6.0,12.0,48,0.00,,---,0.00,VWS V14.00,2013-08-22 19:00:00,
2013-08-22 14:15:00,95.2,71.8,29.95,SSE,158,6.0,15.0,47,0.00,,---,0.00,VWS V14.00,2013-08-22 19:15:00,
2013-08-22 14:30:00,93.8,71.8,29.94,ESE,112,5.0,13.0,49,0.00,,---,0.00,VWS V14.00,2013-08-22 19:30:00,
2013-08-22 14:45:00,93.1,71.7,29.93,East,90,6.0,12.0,50,0.00,,---,0.00,VWS V14.00,2013-08-22 19:45:00,
2013-08-22 15:00:00,92.0,71.3,29.93,ENE,68,6.0,11.0,51,0.00,,---,0.00,VWS V14.00,2013-08-22 20:00:00,
2013-08-22 15:15:00,93.6,71.6,29.92,ENE,68,1.0,5.0,49,0.00,,---,0.00,VWS V14.00,2013-08-22 20:15:00,
2013-08-22 15:30:00,95.9,70.5,29.91,South,180,5.0,11.0,44,0.00,,---,0.00,VWS V14.00,2013-08-22 20:30:00,
2013-08-22 15:45:00,96.7,71.2,29.90,SE,135,6.0,16.0,44,0.00,,---,0.00,VWS V14.00,2013-08-22 20:45:00,
2013-08-22 16:00:00,95.8,70.4,29.89,ESE,112,6.0,14.0,44,0.00,,---,0.00,VWS V14.00,2013-08-22 21:00:00,
2013-08-22 16:15:00,96.6,71.1,29.89,SE,135,5.0,11.0,44,0.00,,---,0.00,VWS V14.00,2013-08-22 21:15:00,
2013-08-22 16:30:00,95.5,70.8,29.89,East,90,6.0,12.0,45,0.00,,---,0.00,VWS V14.00,2013-08-22 21:30:00,
2013-08-22 16:45:00,95.2,70.5,29.88,SE,135,4.0,11.0,45,0.00,,---,0.00,VWS V14.00,2013-08-22 21:45:00,
2013-08-22 17:00:00,96.0,69.9,29.88,South,180,5.0,11.0,43,0.00,,---,0.00,VWS V14.00,2013-08-22 22:00:00,
2013-08-22 17:15:00,95.8,70.4,29.87,SSE,158,5.0,11.0,44,0.00,,---,0.00,VWS V14.00,2013-08-22 22:15:00,
2013-08-22 17:30:00,96.1,70.0,29.87,SE,135,7.0,15.0,43,0.00,,---,0.00,VWS V14.00,2013-08-22 22:30:00,
2013-08-22 17:45:00,95.7,69.6,29.87,SE,135,8.0,13.0,43,0.00,,---,0.00,VWS V14.00,2013-08-22 22:45:00,
2013-08-22 18:00:00,95.3,70.0,29.87,ESE,112,8.0,13.0,44,0.00,,---,0.00,VWS V14.00,2013-08-22 23:00:00,
2013-08-22 18:15:00,95.4,70.7,29.87,SE,135,8.0,12.0,45,0.00,,---,0.00,VWS V14.00,2013-08-22 23:15:00,
2013-08-22 18:30:00,94.5,71.2,29.87,ESE,112,8.0,13.0,47,0.00,,---,0.00,VWS V14.00,2013-08-22 23:30:00,
2013-08-22 18:45:00,92.7,70.8,29.87,ESE,112,6.0,11.0,49,0.00,,---,0.00,VWS V14.00,2013-08-22 23:45:00,
2013-08-22 19:00:00,91.6,70.9,29.87,East,90,3.0,7.0,51,0.00,,---,0.00,VWS V14.00,2013-08-23 00:00:00,
2013-08-22 19:15:00,91.0,70.9,29.88,East,90,1.0,4.0,52,0.00,,---,0.00,VWS V14.00,2013-08-23 00:15:00,
2013-08-22 19:30:00,90.6,71.1,29.88,East,90,2.0,5.0,53,0.00,,---,0.00,VWS V14.00,2013-08-23 00:30:00,
2013-08-22 19:45:00,90.2,70.8,29.89,SE,135,2.0,5.0,53,0.00,,---,0.00,VWS V14.00,2013-08-23 00:45:00,
2013-08-22 20:00:00,89.6,70.8,29.89,SE,135,1.0,3.0,54,0.00,,---,0.00,VWS V14.00,2013-08-23 01:00:00,
2013-08-22 20:15:00,88.9,71.2,29.89,SE,135,0.0,2.0,56,0.00,,---,0.00,VWS V14.00,2013-08-23 01:15:00,
2013-08-22 20:30:00,87.6,71.5,29.90,ENE,68,1.0,5.0,59,0.00,,---,0.00,VWS V14.00,2013-08-23 01:30:00,
2013-08-22 20:45:00,86.6,71.1,29.90,NE,45,1.0,5.0,60,0.00,,---,0.00,VWS V14.00,2013-08-23 01:45:00,
2013-08-22 21:00:00,86.2,70.7,29.91,NE,45,0.0,0.0,60,0.00,,---,0.00,VWS V14.00,2013-08-23 02:00:00,
2013-08-22 21:15:00,85.3,70.8,29.92,NE,45,0.0,2.0,62,0.00,,---,0.00,VWS V14.00,2013-08-23 02:15:00,
2013-08-22 21:30:00,84.7,70.7,29.92,NE,45,0.0,2.0,63,0.00,,---,0.00,VWS V14.00,2013-08-23 02:30:00,
2013-08-22 21:45:00,84.3,70.8,29.93,ESE,112,0.0,5.0,64,0.00,,---,0.00,VWS V14.00,2013-08-23 02:45:00,
2013-08-22 22:00:00,83.8,71.2,29.93,ESE,112,0.0,0.0,66,0.00,,---,0.00,VWS V14.00,2013-08-23 03:00:00,
2013-08-22 22:15:00,83.2,71.1,29.94,ESE,112,0.0,0.0,67,0.00,,---,0.00,VWS V14.00,2013-08-23 03:15:00,
2013-08-22 22:30:00,82.4,70.8,29.94,ESE,112,0.0,0.0,68,0.00,,---,0.00,VWS V14.00,2013-08-23 03:30:00,
2013-08-22 22:45:00,81.7,71.0,29.94,ESE,112,0.0,0.0,70,0.00,,---,0.00,VWS V14.00,2013-08-23 03:45:00,
2013-08-22 23:00:00,81.7,70.6,29.94,SE,135,1.0,5.0,69,0.00,,---,0.00,VWS V14.00,2013-08-23 04:00:00,
2013-08-22 23:15:00,82.0,70.8,29.94,SE,135,0.0,4.0,69,0.00,,---,0.00,VWS V14.00,2013-08-23 04:15:00,
2013-08-22 23:30:00,82.0,70.8,29.94,South,180,2.0,5.0,69,0.00,,---,0.00,VWS V14.00,2013-08-23 04:30:00,
2013-08-22 23:45:00,81.8,71.1,29.94,South,180,1.0,5.0,70,0.00,,---,0.00,VWS V14.00,2013-08-23 04:45:00,